createdAt,value
2017-04-19T00:00:05.266Z,73.82
2017-04-19T00:00:59.294Z,74.06
2017-04-19T00:01:48.347Z,74.36
2017-04-19T00:02:43.390Z,74.23
2017-04-19T00:03:38.404Z,74.13
2017-04-19T00:04:32.401Z,74.46
2017-04-19T00:05:26.457Z,74.95
2017-04-19T00:06:26.473Z,74.83
2017-04-19T00:07:20.490Z,75.04
2017-04-19T00:08:15.584Z,75.17
2017-04-19T00:09:09.593Z,75.29
2017-04-19T00:10:03.579Z,75.33
2017-04-19T00:10:52.613Z,75.74
2017-04-19T00:11:47.673Z,75.71
2017-04-19T00:12:41.728Z,75.80
2017-04-19T00:13:41.733Z,76.22
2017-04-19T00:14:35.714Z,76.10
2017-04-19T00:15:30.796Z,75.91
2017-04-19T00:16:24.759Z,75.66
2017-04-19T00:17:30.804Z,75.84
2017-04-19T00:18:18.860Z,76.16
2017-04-19T00:19:18.862Z,76.45
2017-04-19T00:20:13.906Z,76.48
2017-04-19T00:21:14.165Z,76.41
2017-04-19T00:22:13.970Z,76.66
2017-04-19T00:23:08.949Z,76.86
2017-04-19T00:23:57.997Z,76.94
2017-04-19T00:24:47.103Z,77.12
2017-04-19T00:25:36.079Z,77.16
2017-04-19T00:26:31.062Z,77.15
2017-04-19T00:27:32.122Z,77.37
2017-04-19T00:28:27.153Z,77.55
2017-04-19T00:29:16.163Z,77.19
2017-04-19T00:30:10.182Z,77.09
2017-04-19T00:31:10.239Z,77.37
2017-04-19T00:31:59.354Z,77.46
2017-04-19T00:32:53.300Z,77.10
2017-04-19T00:33:47.310Z,77.05
2017-04-19T00:34:53.358Z,77.42
2017-04-19T00:35:48.375Z,77.07
2017-04-19T00:36:42.416Z,76.97
2017-04-19T00:37:36.462Z,76.89
2017-04-19T00:38:30.499Z,77.12
2017-04-19T00:39:30.473Z,77.60
2017-04-19T00:40:25.497Z,77.62
2017-04-19T00:41:14.488Z,77.68
2017-04-19T00:42:08.591Z,77.65
2017-04-19T00:42:57.596Z,77.41
2017-04-19T00:43:45.783Z,77.29
2017-04-19T00:44:39.675Z,77.35
2017-04-19T00:45:28.668Z,77.50
2017-04-19T00:46:22.716Z,77.59
2017-04-19T00:47:17.762Z,77.60
2017-04-19T00:48:05.875Z,77.63
2017-04-19T00:49:05.781Z,77.96
2017-04-19T00:49:59.806Z,77.83
2017-04-19T00:50:53.887Z,77.85
2017-04-19T00:51:42.072Z,77.77
2017-04-19T00:52:43.666Z,77.63
2017-04-19T00:53:31.967Z,77.90
2017-04-19T00:54:25.964Z,78.07
2017-04-19T00:55:32.991Z,78.16
2017-04-19T00:56:28.007Z,78.26
2017-04-19T00:57:21.991Z,78.41
2017-04-19T00:58:23.068Z,78.74
2017-04-19T00:59:17.128Z,78.85
2017-04-19T01:00:17.161Z,78.58
2017-04-19T01:01:11.192Z,78.31
2017-04-19T01:02:12.173Z,78.30
2017-04-19T01:03:06.210Z,78.41
2017-04-19T01:03:55.210Z,78.43
2017-04-19T01:04:49.292Z,78.47
2017-04-19T01:05:43.315Z,78.50
2017-04-19T01:06:37.393Z,78.76
2017-04-19T01:07:31.415Z,78.86
2017-04-19T01:08:26.408Z,79.01
2017-04-19T01:09:20.390Z,78.86
2017-04-19T01:10:14.414Z,78.82
2017-04-19T01:11:09.472Z,78.71
2017-04-19T01:11:58.418Z,78.80
2017-04-19T01:12:53.498Z,78.88
2017-04-19T01:13:47.558Z,79.11
2017-04-19T01:14:41.697Z,79.12
2017-04-19T01:15:29.618Z,79.07
2017-04-19T01:16:24.589Z,79.03
2017-04-19T01:17:18.694Z,79.00
2017-04-19T01:18:19.004Z,79.05
2017-04-19T01:19:13.717Z,79.24
2017-04-19T01:20:13.690Z,79.47
2017-04-19T01:21:07.804Z,79.71
2017-04-19T01:22:01.791Z,79.92
2017-04-19T01:22:50.928Z,80.06
2017-04-19T01:23:39.945Z,80.11
2017-04-19T01:24:28.954Z,80.09
2017-04-19T01:25:22.908Z,80.17
2017-04-19T01:26:17.955Z,80.29
2017-04-19T01:27:06.967Z,80.25
2017-04-19T01:27:56.023Z,80.28
2017-04-19T01:28:50.034Z,80.36
2017-04-19T01:29:45.102Z,80.44
2017-04-19T01:30:39.163Z,80.59
2017-04-19T01:31:33.083Z,80.82
2017-04-19T01:32:22.139Z,80.98
2017-04-19T01:33:22.209Z,81.09
2017-04-19T01:34:17.179Z,81.22
2017-04-19T01:35:11.195Z,81.28
2017-04-19T01:36:11.268Z,81.33
2017-04-19T01:37:06.276Z,81.41
2017-04-19T01:38:06.345Z,81.56
2017-04-19T01:38:55.280Z,81.62
2017-04-19T01:39:43.372Z,81.73
2017-04-19T01:40:38.513Z,81.85
2017-04-19T01:41:32.474Z,81.93
2017-04-19T01:42:26.417Z,81.92
2017-04-19T01:43:21.516Z,82.04
2017-04-19T01:44:09.468Z,82.09
2017-04-19T01:45:09.696Z,82.11
2017-04-19T01:46:03.608Z,82.17
2017-04-19T01:46:57.600Z,82.19
2017-04-19T01:47:57.582Z,82.24
2017-04-19T01:48:57.591Z,82.31
2017-04-19T01:49:52.663Z,82.38
2017-04-19T01:50:47.776Z,82.42
2017-04-19T01:51:41.685Z,82.34
2017-04-19T01:52:36.714Z,82.34
2017-04-19T01:53:30.800Z,82.31
2017-04-19T01:54:30.766Z,82.39
2017-04-19T01:55:24.768Z,82.39
2017-04-19T01:56:24.823Z,82.32
2017-04-19T01:57:18.886Z,82.39
2017-04-19T01:58:13.865Z,82.43
2017-04-19T01:59:07.875Z,82.31
2017-04-19T02:00:07.893Z,82.32
2017-04-19T02:01:07.967Z,82.44
2017-04-19T02:02:02.985Z,82.52
2017-04-19T02:02:57.994Z,82.64
2017-04-19T02:03:57.963Z,82.73
2017-04-19T02:04:52.119Z,82.84
2017-04-19T02:05:53.015Z,82.95
2017-04-19T02:06:48.082Z,82.97
2017-04-19T02:07:42.094Z,83.01
2017-04-19T02:08:37.355Z,83.01
2017-04-19T02:09:31.128Z,83.10
2017-04-19T02:10:31.454Z,83.11
2017-04-19T02:11:26.166Z,83.34
2017-04-19T02:12:20.255Z,83.48
2017-04-19T02:13:14.182Z,83.57
2017-04-19T02:14:08.271Z,83.57
2017-04-19T02:15:03.279Z,83.51
2017-04-19T02:15:58.346Z,83.52
2017-04-19T02:16:58.346Z,83.45
2017-04-19T02:17:52.367Z,83.55
2017-04-19T02:18:46.491Z,83.40
2017-04-19T02:19:35.418Z,83.26
2017-04-19T02:20:29.441Z,83.15
2017-04-19T02:21:24.482Z,83.07
2017-04-19T02:22:12.501Z,83.08
2017-04-19T02:23:06.479Z,83.06
2017-04-19T02:24:00.558Z,83.04
2017-04-19T02:24:54.610Z,83.11
2017-04-19T02:25:49.587Z,83.12
2017-04-19T02:26:44.676Z,83.17
2017-04-19T02:27:33.656Z,83.16
2017-04-19T02:28:27.730Z,83.15
2017-04-19T02:29:21.767Z,83.18
2017-04-19T02:30:15.731Z,83.31
2017-04-19T02:31:09.768Z,83.44
2017-04-19T02:32:03.826Z,83.49
2017-04-19T02:32:58.865Z,83.55
2017-04-19T02:33:59.847Z,83.70
2017-04-19T02:34:48.886Z,83.81
2017-04-19T02:35:43.896Z,83.94
2017-04-19T02:36:37.960Z,84.08
2017-04-19T02:37:37.964Z,84.18
2017-04-19T02:38:32.016Z,84.30
2017-04-19T02:39:21.003Z,84.44
2017-04-19T02:40:16.006Z,84.60
2017-04-19T02:41:05.109Z,84.70
2017-04-19T02:42:05.096Z,84.84
2017-04-19T02:42:59.156Z,85.00
2017-04-19T02:43:59.155Z,85.24
2017-04-19T02:44:48.266Z,85.30
2017-04-19T02:45:43.405Z,85.41
2017-04-19T02:46:43.436Z,85.58
2017-04-19T02:47:38.230Z,85.66
2017-04-19T02:48:33.291Z,85.74
2017-04-19T02:49:21.342Z,85.84
2017-04-19T02:50:21.320Z,85.94
2017-04-19T02:51:21.760Z,86.00
2017-04-19T02:52:15.462Z,85.99
2017-04-19T02:53:10.409Z,86.02
2017-04-19T02:54:05.380Z,86.04
2017-04-19T02:54:59.468Z,86.03
2017-04-19T02:55:53.505Z,86.04
2017-04-19T02:56:47.506Z,86.07
2017-04-19T02:57:35.589Z,86.06
2017-04-19T02:58:30.596Z,86.03
2017-04-19T02:59:24.664Z,86.02
2017-04-19T03:00:24.598Z,85.98
2017-04-19T03:01:18.629Z,86.06
2017-04-19T03:02:18.665Z,86.06
2017-04-19T03:03:12.711Z,86.15
2017-04-19T03:04:06.723Z,86.25
2017-04-19T03:04:55.774Z,86.28
2017-04-19T03:05:55.974Z,86.27
2017-04-19T03:06:49.770Z,86.29
2017-04-19T03:07:38.828Z,86.28
2017-04-19T03:08:39.851Z,86.34
2017-04-19T03:09:33.969Z,86.38
2017-04-19T03:10:33.908Z,86.45
2017-04-19T03:11:27.921Z,86.49
2017-04-19T03:12:21.945Z,86.61
2017-04-19T03:13:15.971Z,86.67
2017-04-19T03:14:11.016Z,86.70
2017-04-19T03:15:00.007Z,86.74
2017-04-19T03:15:54.080Z,86.78
2017-04-19T03:16:48.096Z,86.90
2017-04-19T03:17:37.113Z,86.94
2017-04-19T03:18:26.169Z,87.00
2017-04-19T03:19:14.201Z,87.00
2017-04-19T03:20:08.198Z,86.98
2017-04-19T03:21:03.243Z,86.96
2017-04-19T03:22:04.242Z,86.98
2017-04-19T03:23:04.298Z,86.93
2017-04-19T03:23:59.256Z,86.90
2017-04-19T03:24:59.286Z,86.92
2017-04-19T03:25:53.330Z,86.91
2017-04-19T03:26:53.378Z,86.91
2017-04-19T03:27:48.370Z,86.94
2017-04-19T03:28:42.392Z,87.05
2017-04-19T03:29:37.471Z,87.04
2017-04-19T03:30:32.479Z,87.00
2017-04-19T03:31:21.476Z,87.00
2017-04-19T03:32:27.554Z,87.06
2017-04-19T03:33:21.513Z,87.11
2017-04-19T03:34:21.554Z,87.15
2017-04-19T03:35:10.564Z,87.15
2017-04-19T03:35:58.599Z,87.16
2017-04-19T03:36:46.660Z,87.17
2017-04-19T03:37:40.694Z,87.12
2017-04-19T03:38:40.712Z,87.16
2017-04-19T03:39:29.743Z,87.19
2017-04-19T03:40:29.767Z,87.27
2017-04-19T03:41:24.778Z,87.35
2017-04-19T03:42:19.796Z,87.38
2017-04-19T03:43:20.098Z,87.48
2017-04-19T03:44:14.848Z,87.49
2017-04-19T03:45:09.881Z,87.52
2017-04-19T03:46:10.892Z,87.55
2017-04-19T03:47:11.890Z,87.59
2017-04-19T03:48:12.896Z,87.62
2017-04-19T03:49:12.985Z,87.65
2017-04-19T03:50:13.982Z,87.67
2017-04-19T03:51:07.978Z,87.68
2017-04-19T03:52:08.006Z,87.77
2017-04-19T03:53:03.165Z,87.83
2017-04-19T03:53:58.105Z,87.82
2017-04-19T03:54:58.077Z,87.93
2017-04-19T03:55:53.088Z,87.98
2017-04-19T03:56:48.112Z,88.04
2017-04-19T03:57:49.170Z,88.12
2017-04-19T03:58:49.201Z,88.17
2017-04-19T03:59:44.209Z,88.21
2017-04-19T04:00:39.233Z,88.28
2017-04-19T04:01:33.264Z,88.29
2017-04-19T04:02:27.305Z,88.34
2017-04-19T04:03:22.289Z,88.39
2017-04-19T04:04:22.484Z,88.42
2017-04-19T04:05:17.358Z,88.42
2017-04-19T04:06:12.446Z,88.49
2017-04-19T04:07:01.403Z,88.49
2017-04-19T04:07:55.449Z,88.49
2017-04-19T04:08:50.587Z,88.48
2017-04-19T04:09:39.501Z,88.52
2017-04-19T04:10:40.508Z,88.57
2017-04-19T04:11:34.507Z,88.57
2017-04-19T04:12:28.564Z,88.56
2017-04-19T04:13:22.591Z,88.62
2017-04-19T04:14:11.617Z,88.65
2017-04-19T04:15:05.662Z,88.64
2017-04-19T04:16:00.684Z,88.65
2017-04-19T04:16:54.684Z,88.66
2017-04-19T04:17:49.738Z,88.68
2017-04-19T04:18:49.757Z,88.70
2017-04-19T04:19:38.768Z,88.75
2017-04-19T04:20:33.788Z,88.79
2017-04-19T04:21:33.812Z,88.80
2017-04-19T04:22:27.895Z,88.82
2017-04-19T04:23:22.882Z,88.81
2017-04-19T04:24:17.934Z,88.85
2017-04-19T04:25:11.900Z,88.90
2017-04-19T04:26:05.979Z,88.95
2017-04-19T04:26:59.950Z,88.97
2017-04-19T04:28:00.286Z,88.99
2017-04-19T04:28:54.047Z,89.03
2017-04-19T04:29:55.098Z,89.04
2017-04-19T04:30:50.080Z,89.04
2017-04-19T04:31:50.132Z,89.12
2017-04-19T04:32:45.132Z,89.11
2017-04-19T04:33:45.322Z,89.12
2017-04-19T04:34:40.207Z,89.14
2017-04-19T04:35:35.177Z,89.14
2017-04-19T04:36:29.208Z,89.18
2017-04-19T04:37:24.298Z,89.19
2017-04-19T04:38:18.298Z,89.20
2017-04-19T04:39:18.357Z,89.21
2017-04-19T04:40:07.358Z,89.22
2017-04-19T04:41:01.412Z,89.26
2017-04-19T04:41:55.411Z,89.26
2017-04-19T04:42:50.421Z,89.33
2017-04-19T04:43:44.640Z,89.29
2017-04-19T04:44:44.490Z,89.32
2017-04-19T04:45:39.495Z,89.35
2017-04-19T04:46:34.513Z,89.36
2017-04-19T04:47:28.495Z,89.32
2017-04-19T04:48:22.567Z,89.29
2017-04-19T04:49:16.860Z,89.27
2017-04-19T04:50:10.948Z,89.27
2017-04-19T04:51:05.635Z,89.27
2017-04-19T04:52:00.679Z,89.23
2017-04-19T04:52:54.704Z,89.23
2017-04-19T04:53:49.796Z,89.21
2017-04-19T04:54:44.937Z,89.18
2017-04-19T04:55:38.835Z,89.20
2017-04-19T04:56:33.800Z,89.19
2017-04-19T04:57:27.843Z,89.25
2017-04-19T04:58:22.853Z,89.26
2017-04-19T04:59:16.897Z,89.29
2017-04-19T05:00:11.895Z,89.31
2017-04-19T05:01:06.971Z,89.29
2017-04-19T05:02:00.938Z,89.21
2017-04-19T05:02:48.992Z,89.21
2017-04-19T05:03:43.050Z,89.20
2017-04-19T05:04:32.142Z,89.14
2017-04-19T05:05:20.096Z,89.17
2017-04-19T05:06:15.148Z,89.12
2017-04-19T05:07:10.153Z,89.15
2017-04-19T05:07:59.184Z,89.00
2017-04-19T05:08:53.198Z,88.61
2017-04-19T05:09:42.279Z,88.55
2017-04-19T05:10:37.410Z,88.50
2017-04-19T05:11:31.424Z,88.01
2017-04-19T05:12:26.354Z,87.22
2017-04-19T05:13:15.759Z,86.48
2017-04-19T05:14:04.395Z,85.61
2017-04-19T05:14:52.441Z,84.31
2017-04-19T05:15:46.464Z,83.47
2017-04-19T05:16:35.530Z,82.91
2017-04-19T05:17:29.545Z,82.64
2017-04-19T05:18:24.593Z,81.52
2017-04-19T05:19:24.617Z,80.75
2017-04-19T05:20:19.598Z,80.09
2017-04-19T05:21:19.662Z,79.42
2017-04-19T05:22:08.710Z,78.95
2017-04-19T05:22:57.908Z,78.76
2017-04-19T05:23:52.731Z,78.82
2017-04-19T05:24:46.791Z,78.62
2017-04-19T05:25:41.880Z,77.71
2017-04-19T05:26:30.901Z,77.11
2017-04-19T05:27:26.187Z,76.33
2017-04-19T05:28:20.872Z,75.36
2017-04-19T05:29:09.961Z,74.80
2017-04-19T05:29:58.970Z,74.49
2017-04-19T05:30:54.019Z,74.71
2017-04-19T05:31:43.058Z,74.50
2017-04-19T05:32:32.138Z,74.56
2017-04-19T05:33:26.119Z,74.26
2017-04-19T05:34:27.135Z,73.59
2017-04-19T05:35:16.199Z,73.50
2017-04-19T05:36:05.206Z,74.01
2017-04-19T05:36:54.288Z,74.14
2017-04-19T05:37:48.593Z,74.60
2017-04-19T05:38:48.298Z,75.03
2017-04-19T05:39:42.395Z,75.09
2017-04-19T05:40:43.467Z,75.03
2017-04-19T05:41:43.381Z,75.31
2017-04-19T05:42:37.425Z,75.09
2017-04-19T05:43:31.893Z,75.17
2017-04-19T05:44:26.517Z,74.45
2017-04-19T05:45:21.523Z,73.73
2017-04-19T05:46:15.558Z,73.92
2017-04-19T05:47:10.603Z,74.17
2017-04-19T05:48:04.609Z,73.59
2017-04-19T05:49:04.948Z,72.99
2017-04-19T05:49:59.000Z,73.05
2017-04-19T05:50:58.700Z,72.93
2017-04-19T05:51:53.776Z,72.74
2017-04-19T05:52:47.796Z,72.59
2017-04-19T05:53:35.857Z,72.88
2017-04-19T05:54:36.093Z,71.39
2017-04-19T05:55:30.924Z,70.64
2017-04-19T05:56:24.960Z,70.86
2017-04-19T05:57:19.995Z,70.80
2017-04-19T05:58:14.177Z,71.72
2017-04-19T05:59:14.021Z,71.79
2017-04-19T06:00:09.640Z,71.31
2017-04-19T06:01:04.203Z,71.66
2017-04-19T06:01:58.196Z,72.51
2017-04-19T06:02:59.161Z,72.68
2017-04-19T06:03:53.178Z,72.49
2017-04-19T06:04:47.301Z,72.11
2017-04-19T06:05:47.524Z,71.79
2017-04-19T06:06:41.313Z,71.26
2017-04-19T06:07:41.356Z,71.51
2017-04-19T06:08:36.426Z,70.62
2017-04-19T06:09:31.402Z,70.58
2017-04-19T06:10:31.463Z,69.89
2017-04-19T06:11:26.502Z,70.61
2017-04-19T06:12:21.541Z,70.53
2017-04-19T06:13:15.925Z,70.28
2017-04-19T06:14:09.702Z,70.48
2017-04-19T06:15:04.623Z,70.92
2017-04-19T06:15:58.682Z,71.30
2017-04-19T06:16:58.899Z,71.65
2017-04-19T06:17:58.782Z,71.53
2017-04-19T06:18:58.749Z,70.87
2017-04-19T06:19:58.812Z,70.40
2017-04-19T06:20:58.809Z,69.34
2017-04-19T06:21:58.808Z,69.51
2017-04-19T06:22:53.894Z,69.05
2017-04-19T06:23:47.922Z,69.10
2017-04-19T06:24:48.013Z,67.82
2017-04-19T06:25:42.979Z,68.94
2017-04-19T06:26:38.025Z,69.37
2017-04-19T06:27:32.135Z,69.07
2017-04-19T06:28:32.127Z,67.79
2017-04-19T06:29:26.191Z,68.21
2017-04-19T06:30:27.186Z,67.80
2017-04-19T06:31:28.189Z,67.08
2017-04-19T06:32:28.239Z,67.39
2017-04-19T06:33:23.316Z,68.16
2017-04-19T06:34:23.327Z,69.28
2017-04-19T06:35:18.455Z,69.51
2017-04-19T06:36:13.381Z,69.16
2017-04-19T06:37:07.482Z,69.27
2017-04-19T06:38:07.550Z,69.77
2017-04-19T06:39:02.516Z,70.53
2017-04-19T06:39:57.586Z,70.10
2017-04-19T06:40:57.586Z,69.66
2017-04-19T06:41:51.603Z,69.71
2017-04-19T06:42:51.617Z,69.45
2017-04-19T06:43:46.679Z,66.90
2017-04-19T06:44:40.751Z,67.53
2017-04-19T06:45:40.779Z,68.37
2017-04-19T06:46:35.815Z,68.04
2017-04-19T06:47:30.873Z,68.04
2017-04-19T06:48:30.887Z,68.39
2017-04-19T06:49:25.910Z,69.02
2017-04-19T06:50:20.939Z,68.14
2017-04-19T06:51:15.071Z,69.48
2017-04-19T06:52:15.107Z,70.20
2017-04-19T06:53:09.099Z,69.42
2017-04-19T06:54:10.119Z,68.39
2017-04-19T06:55:10.285Z,67.46
2017-04-19T06:56:10.166Z,67.99
2017-04-19T06:57:04.201Z,67.72
2017-04-19T06:58:04.264Z,67.49
2017-04-19T06:58:59.332Z,66.52
2017-04-19T06:59:54.318Z,65.93
2017-04-19T07:00:48.401Z,66.10
2017-04-19T07:01:48.386Z,66.18
2017-04-19T07:02:43.459Z,65.88
2017-04-19T07:03:38.555Z,66.30
2017-04-19T07:04:38.538Z,67.21
2017-04-19T07:05:32.553Z,68.24
2017-04-19T07:06:32.624Z,65.99
2017-04-19T07:07:32.636Z,64.67
2017-04-19T07:08:32.696Z,66.38
2017-04-19T07:09:32.900Z,66.66
2017-04-19T07:10:32.779Z,67.01
2017-04-19T07:11:32.797Z,66.78
2017-04-19T07:12:32.829Z,65.92
2017-04-19T07:13:26.872Z,66.71
2017-04-19T07:14:20.908Z,67.41
2017-04-19T07:15:21.017Z,65.48
2017-04-19T07:16:14.954Z,65.47
2017-04-19T07:17:15.024Z,64.61
2017-04-19T07:18:09.032Z,64.23
2017-04-19T07:19:09.113Z,65.21
2017-04-19T07:20:03.112Z,65.74
2017-04-19T07:21:03.211Z,65.54
2017-04-19T07:21:57.189Z,65.84
2017-04-19T07:22:58.260Z,65.87
2017-04-19T07:23:53.286Z,65.43
2017-04-19T07:24:53.328Z,64.27
2017-04-19T07:25:48.432Z,64.18
2017-04-19T07:26:48.682Z,63.96
2017-04-19T07:27:43.584Z,63.27
2017-04-19T07:28:38.491Z,65.10
2017-04-19T07:29:27.511Z,65.95
2017-04-19T07:30:22.545Z,66.17
2017-04-19T07:31:16.599Z,66.25
2017-04-19T07:32:16.827Z,65.72
2017-04-19T07:33:10.726Z,65.41
2017-04-19T07:34:11.752Z,63.89
2017-04-19T07:35:11.861Z,63.97
2017-04-19T07:36:11.807Z,63.04
2017-04-19T07:37:11.863Z,63.79
2017-04-19T07:38:06.185Z,63.72
2017-04-19T07:39:00.987Z,64.25
2017-04-19T07:39:55.007Z,65.34
2017-04-19T07:40:55.033Z,67.35
2017-04-19T07:41:49.067Z,68.45
2017-04-19T07:42:49.101Z,68.13
2017-04-19T07:43:44.583Z,66.80
2017-04-19T07:44:38.228Z,66.92
2017-04-19T07:45:38.391Z,67.43
2017-04-19T07:46:32.259Z,68.25
2017-04-19T07:47:33.316Z,68.37
2017-04-19T07:48:33.324Z,66.39
2017-04-19T07:49:28.670Z,65.81
2017-04-19T07:50:28.394Z,65.17
2017-04-19T07:51:22.460Z,63.56
2017-04-19T07:52:16.490Z,62.90
2017-04-19T07:53:10.524Z,61.83
2017-04-19T07:54:04.630Z,60.33
2017-04-19T07:55:04.635Z,59.28
2017-04-19T07:55:53.671Z,60.38
2017-04-19T07:56:48.985Z,60.91
2017-04-19T07:57:43.714Z,60.01
2017-04-19T07:58:43.789Z,58.38
2017-04-19T07:59:38.828Z,58.47
2017-04-19T08:00:27.870Z,56.55
2017-04-19T08:01:22.908Z,56.75
2017-04-19T08:02:23.276Z,57.43
2017-04-19T08:03:17.019Z,56.81
2017-04-19T08:04:11.056Z,57.59
2017-04-19T08:05:12.149Z,59.82
2017-04-19T08:06:12.163Z,61.29
2017-04-19T08:07:07.198Z,61.89
2017-04-19T08:08:07.213Z,61.71
2017-04-19T08:09:01.372Z,61.11
2017-04-19T08:10:01.289Z,60.23
2017-04-19T08:10:55.348Z,57.58
2017-04-19T08:11:55.363Z,57.66
2017-04-19T08:12:44.455Z,56.36
2017-04-19T08:13:39.457Z,56.82
2017-04-19T08:14:28.510Z,57.13
2017-04-19T08:15:22.547Z,57.30
2017-04-19T08:16:17.628Z,56.12
2017-04-19T08:17:11.842Z,56.28
2017-04-19T08:18:06.693Z,55.34
2017-04-19T08:19:06.705Z,55.13
2017-04-19T08:20:01.782Z,56.72
2017-04-19T08:20:55.807Z,56.56
2017-04-19T08:21:49.883Z,54.62
2017-04-19T08:22:43.903Z,55.15
2017-04-19T08:23:44.944Z,55.70
2017-04-19T08:24:46.255Z,54.89
2017-04-19T08:25:35.085Z,56.16
2017-04-19T08:26:29.119Z,55.41
2017-04-19T08:27:24.171Z,54.85
2017-04-19T08:28:18.766Z,54.59
2017-04-19T08:29:13.352Z,56.63
2017-04-19T08:30:07.293Z,55.27
2017-04-19T08:31:01.348Z,54.85
2017-04-19T08:31:56.477Z,54.61
2017-04-19T08:32:45.410Z,55.65
2017-04-19T08:33:40.649Z,56.11
2017-04-19T08:34:40.544Z,57.61
2017-04-19T08:35:35.669Z,56.84
2017-04-19T08:36:29.627Z,56.38
2017-04-19T08:37:29.702Z,56.64
2017-04-19T08:38:29.735Z,57.93
2017-04-19T08:39:24.756Z,59.38
2017-04-19T08:40:24.928Z,61.41
2017-04-19T08:41:19.846Z,62.75
2017-04-19T08:42:14.986Z,63.19
2017-04-19T08:43:14.952Z,64.03
2017-04-19T08:44:10.038Z,63.99
2017-04-19T08:45:05.040Z,61.77
2017-04-19T08:45:59.084Z,60.84
2017-04-19T08:46:54.111Z,59.12
2017-04-19T08:47:48.198Z,58.46
2017-04-19T08:48:37.161Z,56.40
2017-04-19T08:49:26.232Z,56.59
2017-04-19T08:50:20.277Z,56.34
2017-04-19T08:51:14.353Z,54.23
2017-04-19T08:52:08.387Z,53.80
2017-04-19T08:53:08.422Z,53.84
2017-04-19T08:53:57.483Z,53.95
2017-04-19T08:54:46.553Z,53.84
2017-04-19T08:55:34.574Z,54.01
2017-04-19T08:56:29.613Z,53.21
2017-04-19T08:57:24.674Z,56.38
2017-04-19T08:58:20.121Z,54.10
2017-04-19T08:59:13.783Z,52.59
2017-04-19T09:00:08.804Z,52.88
2017-04-19T09:01:08.871Z,51.20
2017-04-19T09:02:03.898Z,50.86
2017-04-19T09:02:57.926Z,53.17
2017-04-19T09:03:53.082Z,53.63
2017-04-19T09:04:48.031Z,53.44
2017-04-19T09:05:42.138Z,54.64
2017-04-19T09:06:37.195Z,53.80
2017-04-19T09:07:38.232Z,54.48
2017-04-19T09:08:38.400Z,55.06
2017-04-19T09:09:32.280Z,55.51
2017-04-19T09:10:32.324Z,54.85
2017-04-19T09:11:26.415Z,53.52
2017-04-19T09:12:27.410Z,51.14
2017-04-19T09:13:15.452Z,51.52
2017-04-19T09:14:09.502Z,49.84
2017-04-19T09:15:09.649Z,46.68
2017-04-19T09:16:04.631Z,47.47
2017-04-19T09:16:59.659Z,51.61
2017-04-19T09:17:53.707Z,51.67
2017-04-19T09:18:54.777Z,51.21
2017-04-19T09:19:49.798Z,50.21
2017-04-19T09:20:44.889Z,49.40
2017-04-19T09:21:38.901Z,49.00
2017-04-19T09:22:40.001Z,52.55
2017-04-19T09:23:40.002Z,48.58
2017-04-19T09:24:34.080Z,46.76
2017-04-19T09:25:34.082Z,48.70
2017-04-19T09:26:28.137Z,51.03
2017-04-19T09:27:28.230Z,51.65
2017-04-19T09:28:22.521Z,52.85
2017-04-19T09:29:22.307Z,54.23
2017-04-19T09:30:17.324Z,51.80
2017-04-19T09:31:06.392Z,52.96
2017-04-19T09:32:01.455Z,52.37
2017-04-19T09:33:01.503Z,53.25
2017-04-19T09:33:55.510Z,53.91
2017-04-19T09:34:55.581Z,55.32
2017-04-19T09:35:55.614Z,54.45
2017-04-19T09:36:55.702Z,54.36
2017-04-19T09:37:55.738Z,55.94
2017-04-19T09:38:55.708Z,55.56
2017-04-19T09:39:55.912Z,54.68
2017-04-19T09:40:49.808Z,55.36
2017-04-19T09:41:50.892Z,56.53
2017-04-19T09:42:50.899Z,56.17
2017-04-19T09:43:51.253Z,55.62
2017-04-19T09:44:50.967Z,56.47
2017-04-19T09:45:51.004Z,55.95
2017-04-19T09:46:51.078Z,54.83
2017-04-19T09:47:51.071Z,55.55
2017-04-19T09:48:51.145Z,54.07
2017-04-19T09:49:51.183Z,53.02
2017-04-19T09:50:51.209Z,52.54
2017-04-19T09:51:51.304Z,53.18
2017-04-19T09:52:51.264Z,52.37
2017-04-19T09:53:46.295Z,52.83
2017-04-19T09:54:46.394Z,54.12
2017-04-19T09:55:41.436Z,55.42
2017-04-19T09:56:36.727Z,55.30
2017-04-19T09:57:36.709Z,56.16
2017-04-19T09:58:31.491Z,54.85
2017-04-19T09:59:26.584Z,54.69
2017-04-19T10:00:20.568Z,52.94
2017-04-19T10:01:15.645Z,51.20
2017-04-19T10:02:16.745Z,49.75
2017-04-19T10:03:10.910Z,48.75
2017-04-19T10:04:10.796Z,49.06
2017-04-19T10:05:05.782Z,48.36
2017-04-19T10:06:00.861Z,47.93
2017-04-19T10:06:48.983Z,49.86
2017-04-19T10:07:42.944Z,48.00
2017-04-19T10:08:31.998Z,48.17
2017-04-19T10:09:25.980Z,44.07
2017-04-19T10:10:26.088Z,44.28
2017-04-19T10:11:20.086Z,44.38
2017-04-19T10:12:14.172Z,44.04
2017-04-19T10:13:02.227Z,43.13
2017-04-19T10:14:02.252Z,45.14
2017-04-19T10:14:57.279Z,47.12
2017-04-19T10:15:45.336Z,45.10
2017-04-19T10:16:45.381Z,44.91
2017-04-19T10:17:40.421Z,46.03
2017-04-19T10:18:35.487Z,42.62
2017-04-19T10:19:24.578Z,42.21
2017-04-19T10:20:18.608Z,43.57
2017-04-19T10:21:07.682Z,44.53
2017-04-19T10:21:56.726Z,45.17
2017-04-19T10:22:51.108Z,45.22
2017-04-19T10:23:44.789Z,41.57
2017-04-19T10:24:38.842Z,43.44
2017-04-19T10:25:32.913Z,44.48
2017-04-19T10:26:33.985Z,44.88
2017-04-19T10:27:22.998Z,45.04
2017-04-19T10:28:11.064Z,47.70
2017-04-19T10:29:05.091Z,42.44
2017-04-19T10:29:53.167Z,42.74
2017-04-19T10:30:42.246Z,41.85
2017-04-19T10:31:36.257Z,41.86
2017-04-19T10:32:31.306Z,41.02
2017-04-19T10:33:31.306Z,43.16
2017-04-19T10:34:31.444Z,44.62
2017-04-19T10:35:31.470Z,47.95
2017-04-19T10:36:25.549Z,48.16
2017-04-19T10:37:26.616Z,48.70
2017-04-19T10:38:20.596Z,48.18
2017-04-19T10:39:14.703Z,46.96
2017-04-19T10:40:09.734Z,47.15
2017-04-19T10:41:09.822Z,50.44
2017-04-19T10:42:09.864Z,51.79
2017-04-19T10:43:10.182Z,51.40
2017-04-19T10:44:09.896Z,50.95
2017-04-19T10:45:10.056Z,50.98
2017-04-19T10:46:10.106Z,49.50
2017-04-19T10:47:10.046Z,47.78
2017-04-19T10:48:05.245Z,47.30
2017-04-19T10:49:00.165Z,46.50
2017-04-19T10:50:01.199Z,48.37
2017-04-19T10:51:01.216Z,50.32
2017-04-19T10:51:56.325Z,49.93
2017-04-19T10:52:56.328Z,49.24
2017-04-19T10:53:50.415Z,50.17
2017-04-19T10:54:50.819Z,50.64
2017-04-19T10:55:50.469Z,53.60
2017-04-19T10:56:44.476Z,53.01
2017-04-19T10:57:50.522Z,52.78
2017-04-19T10:58:50.974Z,50.14
2017-04-19T10:59:45.617Z,51.60
2017-04-19T11:00:39.687Z,50.92
2017-04-19T11:01:33.694Z,52.46
2017-04-19T11:02:29.176Z,50.75
2017-04-19T11:03:23.216Z,50.56
2017-04-19T11:04:17.909Z,51.66
2017-04-19T11:05:18.910Z,50.01
2017-04-19T11:06:18.940Z,49.68
2017-04-19T11:07:14.013Z,50.02
2017-04-19T11:08:03.075Z,50.99
2017-04-19T11:08:57.459Z,51.22
2017-04-19T11:09:51.109Z,49.52
2017-04-19T11:10:45.179Z,49.81
2017-04-19T11:11:40.268Z,47.50
2017-04-19T11:12:35.305Z,46.32
2017-04-19T11:13:24.836Z,46.63
2017-04-19T11:14:13.420Z,46.15
2017-04-19T11:15:07.388Z,43.88
2017-04-19T11:16:01.487Z,46.53
2017-04-19T11:16:56.483Z,46.81
2017-04-19T11:17:51.562Z,44.78
2017-04-19T11:18:45.605Z,43.90
2017-04-19T11:19:45.908Z,45.68
2017-04-19T11:20:34.699Z,45.65
2017-04-19T11:21:29.726Z,42.70
2017-04-19T11:22:23.849Z,42.10
2017-04-19T11:23:17.801Z,40.13
2017-04-19T11:24:18.907Z,41.93
2017-04-19T11:25:18.912Z,40.38
2017-04-19T11:26:13.940Z,42.69
2017-04-19T11:27:08.052Z,44.12
2017-04-19T11:28:03.023Z,43.42
2017-04-19T11:29:03.136Z,44.05
2017-04-19T11:30:03.167Z,44.86
2017-04-19T11:31:03.223Z,43.88
2017-04-19T11:31:57.211Z,45.04
2017-04-19T11:32:52.269Z,45.71
2017-04-19T11:33:46.345Z,46.77
2017-04-19T11:34:46.392Z,47.61
2017-04-19T11:35:35.431Z,49.83
2017-04-19T11:36:29.491Z,49.68
2017-04-19T11:37:29.491Z,50.84
2017-04-19T11:38:23.909Z,50.70
2017-04-19T11:39:17.629Z,50.95
2017-04-19T11:40:12.646Z,51.00
2017-04-19T11:41:00.667Z,51.14
2017-04-19T11:42:01.765Z,53.15
2017-04-19T11:43:01.771Z,53.21
2017-04-19T11:43:57.033Z,52.60
2017-04-19T11:44:50.878Z,52.50
2017-04-19T11:45:51.902Z,51.42
2017-04-19T11:46:45.948Z,51.60
2017-04-19T11:47:41.001Z,52.31
2017-04-19T11:48:41.025Z,52.70
2017-04-19T11:49:36.083Z,51.99
2017-04-19T11:50:24.099Z,51.79
2017-04-19T11:51:12.187Z,53.50
2017-04-19T11:52:06.205Z,54.00
2017-04-19T11:53:00.263Z,52.13